createdAt,value
2018-07-04T00:00:57.436Z,99.99
2018-07-04T00:01:57.684Z,99.99
2018-07-04T00:02:57.676Z,99.99
2018-07-04T00:03:57.412Z,99.99
2018-07-04T00:04:57.405Z,99.99
2018-07-04T00:05:57.660Z,99.99
2018-07-04T00:06:57.387Z,99.99
2018-07-04T00:07:57.636Z,99.99
2018-07-04T00:08:57.629Z,99.99
2018-07-04T00:09:57.619Z,99.99
2018-07-04T00:10:57.616Z,99.99
2018-07-04T00:11:57.603Z,99.99
2018-07-04T00:12:57.596Z,99.99
2018-07-04T00:13:57.589Z,99.99
2018-07-04T00:14:57.583Z,99.99
2018-07-04T00:15:57.573Z,99.99
2018-07-04T00:16:57.567Z,99.99
2018-07-04T00:17:57.553Z,99.99
2018-07-04T00:18:57.550Z,99.99
2018-07-04T00:19:57.538Z,99.99
2018-07-04T00:20:57.536Z,99.99
2018-07-04T00:21:57.531Z,99.99
2018-07-04T00:22:57.513Z,99.99
2018-07-04T00:23:57.505Z,99.99
2018-07-04T00:24:57.497Z,99.99
2018-07-04T00:25:57.494Z,99.99
2018-07-04T00:26:57.485Z,99.99
2018-07-04T00:27:57.476Z,99.99
2018-07-04T00:28:57.209Z,99.99
2018-07-04T00:29:57.201Z,99.99
2018-07-04T00:30:57.450Z,99.99
2018-07-04T00:31:57.187Z,99.99
2018-07-04T00:32:57.434Z,99.99
2018-07-04T00:33:57.424Z,99.99
2018-07-04T00:34:57.169Z,99.99
2018-07-04T00:35:57.414Z,99.99
2018-07-04T00:36:57.199Z,99.99
2018-07-04T00:37:57.137Z,99.99
2018-07-04T00:38:57.387Z,99.99
2018-07-04T00:39:57.118Z,99.99
2018-07-04T00:40:57.366Z,99.99
2018-07-04T00:41:57.362Z,99.99
2018-07-04T00:42:57.354Z,99.99
2018-07-04T00:43:57.341Z,99.99
2018-07-04T00:44:57.334Z,99.99
2018-07-04T00:45:57.325Z,99.99
2018-07-04T00:46:57.061Z,99.99
2018-07-04T00:47:57.309Z,99.99
2018-07-04T00:48:57.306Z,99.99
2018-07-04T00:49:57.297Z,99.99
2018-07-04T00:50:57.286Z,99.99
2018-07-04T00:51:57.275Z,99.99
2018-07-04T00:52:57.271Z,99.99
2018-07-04T00:53:57.269Z,99.99
2018-07-04T00:54:57.254Z,99.99
2018-07-04T00:55:56.987Z,99.99
2018-07-04T00:56:57.237Z,99.99
2018-07-04T00:57:57.228Z,99.99
2018-07-04T00:58:56.964Z,99.99
2018-07-04T00:59:57.213Z,99.99
2018-07-04T01:00:57.204Z,99.99
2018-07-04T01:01:57.194Z,99.99
2018-07-04T01:02:57.194Z,99.99
2018-07-04T01:03:57.182Z,99.99
2018-07-04T01:04:57.178Z,99.99
2018-07-04T01:05:57.158Z,99.99
2018-07-04T01:06:56.896Z,99.99
2018-07-04T01:07:56.889Z,99.99
2018-07-04T01:08:57.138Z,99.99
2018-07-04T01:09:57.128Z,99.99
2018-07-04T01:10:57.117Z,99.99
2018-07-04T01:11:56.857Z,99.99
2018-07-04T01:12:57.103Z,99.99
2018-07-04T01:13:57.097Z,99.99
2018-07-04T01:14:57.091Z,99.99
2018-07-04T01:15:57.081Z,99.99
2018-07-04T01:16:56.813Z,99.99
2018-07-04T01:17:57.066Z,99.99
2018-07-04T01:18:57.052Z,99.99
2018-07-04T01:19:57.042Z,99.99
2018-07-04T01:20:57.045Z,99.99
2018-07-04T01:21:57.038Z,99.99
2018-07-04T01:22:57.020Z,99.99
2018-07-04T01:23:57.017Z,99.99
2018-07-04T01:24:56.747Z,99.7
2018-07-04T01:25:56.996Z,99.99
2018-07-04T01:26:56.731Z,98.85
2018-07-04T01:27:56.980Z,99.13
2018-07-04T01:28:56.974Z,99.6
2018-07-04T01:29:56.965Z,97.32
2018-07-04T01:30:56.954Z,95.41
2018-07-04T01:31:56.976Z,97.7
2018-07-04T01:32:56.942Z,97.99
2018-07-04T01:33:56.675Z,98.65
2018-07-04T01:34:56.668Z,97.46
2018-07-04T01:35:56.915Z,96.8
2018-07-04T01:36:56.906Z,97.51
2018-07-04T01:37:56.900Z,97.61
2018-07-04T01:38:56.897Z,97.08
2018-07-04T01:39:56.884Z,97.41
2018-07-04T01:40:56.875Z,98.99
2018-07-04T01:41:56.867Z,99.7
2018-07-04T01:42:56.860Z,97.61
2018-07-04T01:43:56.851Z,98.27
2018-07-04T01:44:56.846Z,97.41
2018-07-04T01:45:56.580Z,97.41
2018-07-04T01:46:56.576Z,98.65
2018-07-04T01:47:56.819Z,97.7
2018-07-04T01:48:56.811Z,97.61
2018-07-04T01:49:56.802Z,98.46
2018-07-04T01:50:56.793Z,97.61
2018-07-04T01:51:56.789Z,99.32
2018-07-04T01:52:56.523Z,98.56
2018-07-04T01:53:56.770Z,97.13
2018-07-04T01:54:56.768Z,97.41
2018-07-04T01:55:56.760Z,97.13
2018-07-04T01:56:56.750Z,98.08
2018-07-04T01:57:56.743Z,99.32
2018-07-04T01:58:56.733Z,98.36
2018-07-04T01:59:56.725Z,97.7
2018-07-04T02:00:56.721Z,97.22
2018-07-04T02:01:56.711Z,97.89
2018-07-04T02:02:56.702Z,97.51
2018-07-04T02:03:56.692Z,97.61
2018-07-04T02:04:56.429Z,97.89
2018-07-04T02:05:56.678Z,97.61
2018-07-04T02:06:56.672Z,97.51
2018-07-04T02:07:56.662Z,96.65
2018-07-04T02:08:56.654Z,99.22
2018-07-04T02:09:56.646Z,99.99
2018-07-04T02:10:56.638Z,99.89
2018-07-04T02:11:56.632Z,99.04
2018-07-04T02:12:56.628Z,98.65
2018-07-04T02:13:56.616Z,98.27
2018-07-04T02:14:56.604Z,98.27
2018-07-04T02:15:56.344Z,97.99
2018-07-04T02:16:56.610Z,98.56
2018-07-04T02:17:56.588Z,99.22
2018-07-04T02:18:56.577Z,98.75
2018-07-04T02:19:56.312Z,99.32
2018-07-04T02:20:56.558Z,99.41
2018-07-04T02:21:56.297Z,98.08
2018-07-04T02:22:56.542Z,98.18
2018-07-04T02:23:56.538Z,99.51
2018-07-04T02:24:56.531Z,99.99
2018-07-04T02:25:56.262Z,99.7
2018-07-04T02:26:56.512Z,99.99
2018-07-04T02:27:56.503Z,99.99
2018-07-04T02:28:56.497Z,99.99
2018-07-04T02:29:56.234Z,99.99
2018-07-04T02:30:56.234Z,99.99
2018-07-04T02:31:56.473Z,99.99
2018-07-04T02:32:56.472Z,99.99
2018-07-04T02:33:56.200Z,99.99
2018-07-04T02:34:56.454Z,99.99
2018-07-04T02:35:56.444Z,99.99
2018-07-04T02:36:56.440Z,99.99
2018-07-04T02:37:56.429Z,99.99
2018-07-04T02:38:56.418Z,99.99
2018-07-04T02:39:56.153Z,99.99
2018-07-04T02:40:56.145Z,99.99
2018-07-04T02:41:56.406Z,99.99
2018-07-04T02:42:56.388Z,99.99
2018-07-04T02:43:56.123Z,99.99
2018-07-04T02:44:56.433Z,99.99
2018-07-04T02:45:56.117Z,99.99
2018-07-04T02:46:56.355Z,99.99
2018-07-04T02:47:56.350Z,99.99
2018-07-04T02:48:56.343Z,99.99
2018-07-04T02:49:56.332Z,99.99
2018-07-04T02:50:56.325Z,99.99
2018-07-04T02:51:56.322Z,99.99
2018-07-04T02:52:56.307Z,99.99
2018-07-04T02:53:56.302Z,99.99
2018-07-04T02:54:56.293Z,99.99
2018-07-04T02:55:56.286Z,99.99
2018-07-04T02:56:56.021Z,99.99
2018-07-04T02:57:56.264Z,99.99
2018-07-04T02:58:56.266Z,99.99
2018-07-04T02:59:56.260Z,99.99
2018-07-04T03:00:56.240Z,99.99
2018-07-04T03:01:56.240Z,99.99
2018-07-04T03:02:55.967Z,99.99
2018-07-04T03:03:56.216Z,99.99
2018-07-04T03:04:56.219Z,99.99
2018-07-04T03:05:56.201Z,99.99
2018-07-04T03:06:55.934Z,99.99
2018-07-04T03:07:56.190Z,99.99
2018-07-04T03:08:56.173Z,99.99
2018-07-04T03:09:56.167Z,99.99
2018-07-04T03:10:56.156Z,99.99
2018-07-04T03:11:55.893Z,99.99
2018-07-04T03:12:55.883Z,99.99
2018-07-04T03:13:56.139Z,99.99
2018-07-04T03:14:56.286Z,99.99
2018-07-04T03:15:56.167Z,99.99
2018-07-04T03:16:56.110Z,99.99
2018-07-04T03:17:56.107Z,99.99
2018-07-04T03:18:56.091Z,99.99
2018-07-04T03:19:56.086Z,99.99
2018-07-04T03:20:56.075Z,99.99
2018-07-04T03:21:56.068Z,99.99
2018-07-04T03:22:56.104Z,99.99
2018-07-04T03:23:56.050Z,99.99
2018-07-04T03:24:55.783Z,99.99
2018-07-04T03:25:56.039Z,99.99
2018-07-04T03:26:56.025Z,99.99
2018-07-04T03:27:55.758Z,99.99
2018-07-04T03:28:56.009Z,99.99
2018-07-04T03:29:56.000Z,99.99
2018-07-04T03:30:55.998Z,99.99
2018-07-04T03:31:55.985Z,99.99
2018-07-04T03:32:56.055Z,99.99
2018-07-04T03:33:55.711Z,99.99
2018-07-04T03:34:55.959Z,99.99
2018-07-04T03:35:55.955Z,99.99
2018-07-04T03:36:55.941Z,99.99
2018-07-04T03:37:55.933Z,99.99
2018-07-04T03:38:55.935Z,99.99
2018-07-04T03:39:55.920Z,99.99
2018-07-04T03:40:55.909Z,99.99
2018-07-04T03:41:55.902Z,99.99
2018-07-04T03:42:55.635Z,99.99
2018-07-04T03:43:55.886Z,99.99
2018-07-04T03:44:55.621Z,99.99
2018-07-04T03:45:55.869Z,99.99
2018-07-04T03:46:55.859Z,99.99
2018-07-04T03:47:55.855Z,99.99
2018-07-04T03:48:55.862Z,99.99
2018-07-04T03:49:55.983Z,99.99
2018-07-04T03:50:55.836Z,99.99
2018-07-04T03:51:55.837Z,99.99
2018-07-04T03:52:55.816Z,99.99
2018-07-04T03:53:55.806Z,99.99
2018-07-04T03:54:55.798Z,99.99
2018-07-04T03:55:55.793Z,99.99
2018-07-04T03:56:55.787Z,99.99
2018-07-04T03:57:55.774Z,99.99
2018-07-04T03:58:55.768Z,99.99
2018-07-04T03:59:55.761Z,99.99
2018-07-04T04:00:55.755Z,99.99
2018-07-04T04:01:55.487Z,99.99
2018-07-04T04:02:55.738Z,99.99
2018-07-04T04:03:55.728Z,99.99
2018-07-04T04:04:55.719Z,99.99
2018-07-04T04:05:55.712Z,99.99
2018-07-04T04:06:55.444Z,99.99
2018-07-04T04:07:55.695Z,99.99
2018-07-04T04:08:55.688Z,99.99
2018-07-04T04:09:55.676Z,99.99
2018-07-04T04:10:55.670Z,99.99
2018-07-04T04:11:55.666Z,99.99
2018-07-04T04:12:55.653Z,99.99
2018-07-04T04:13:55.661Z,99.99
2018-07-04T04:14:55.647Z,99.99
2018-07-04T04:15:55.633Z,99.99
2018-07-04T04:16:55.625Z,99.99
2018-07-04T04:17:55.359Z,99.99
2018-07-04T04:18:55.607Z,99.99
2018-07-04T04:19:55.728Z,99.99
2018-07-04T04:20:55.593Z,99.99
2018-07-04T04:21:55.585Z,99.99
2018-07-04T04:22:55.580Z,99.99
2018-07-04T04:23:55.315Z,99.99
2018-07-04T04:24:55.565Z,99.99
2018-07-04T04:25:55.560Z,99.99
2018-07-04T04:26:55.551Z,99.99
2018-07-04T04:27:55.540Z,99.99
2018-07-04T04:28:55.534Z,99.99
2018-07-04T04:29:55.526Z,99.99
2018-07-04T04:30:55.516Z,99.99
2018-07-04T04:31:55.509Z,99.99
2018-07-04T04:32:55.504Z,99.99
2018-07-04T04:33:55.604Z,99.99
2018-07-04T04:34:55.491Z,99.99
2018-07-04T04:35:55.481Z,99.99
2018-07-04T04:36:55.476Z,99.99
2018-07-04T04:37:55.467Z,99.99
2018-07-04T04:38:55.456Z,99.99
2018-07-04T04:39:55.452Z,99.99
2018-07-04T04:40:55.445Z,99.99
2018-07-04T04:41:55.438Z,99.99
2018-07-04T04:42:55.427Z,99.99
2018-07-04T04:43:55.419Z,99.99
2018-07-04T04:44:55.411Z,99.99
2018-07-04T04:45:55.406Z,99.99
2018-07-04T04:46:55.428Z,99.99
2018-07-04T04:47:55.396Z,99.99
2018-07-04T04:48:55.385Z,99.99
2018-07-04T04:49:55.377Z,99.99
2018-07-04T04:50:55.370Z,99.99
2018-07-04T04:51:55.359Z,99.99
2018-07-04T04:52:55.353Z,99.99
2018-07-04T04:53:55.089Z,99.99
2018-07-04T04:54:55.501Z,99.99
2018-07-04T04:55:55.329Z,99.99
2018-07-04T04:56:55.331Z,99.99
2018-07-04T04:57:55.317Z,99.99
2018-07-04T04:58:55.315Z,99.99
2018-07-04T04:59:55.046Z,99.99
2018-07-04T05:00:55.298Z,99.99
2018-07-04T05:01:55.295Z,99.99
2018-07-04T05:02:55.286Z,99.99
2018-07-04T05:03:55.280Z,99.99
2018-07-04T05:04:55.271Z,99.99
2018-07-04T05:05:55.263Z,99.99
2018-07-04T05:06:55.255Z,99.99
2018-07-04T05:07:55.374Z,99.99
2018-07-04T05:08:55.241Z,99.99
2018-07-04T05:09:55.236Z,99.99
2018-07-04T05:10:55.237Z,99.99
2018-07-04T05:11:55.227Z,99.99
2018-07-04T05:12:55.219Z,99.99
2018-07-04T05:13:55.211Z,99.99
2018-07-04T05:14:55.248Z,99.99
2018-07-04T05:15:55.198Z,99.99
2018-07-04T05:16:54.937Z,99.09
2018-07-04T05:17:55.183Z,99.04
2018-07-04T05:18:55.184Z,97.75
2018-07-04T05:19:55.173Z,98.66
2018-07-04T05:20:55.170Z,99.99
2018-07-04T05:21:55.168Z,98.85
2018-07-04T05:22:55.157Z,98.28
2018-07-04T05:23:55.157Z,98.28
2018-07-04T05:24:55.144Z,99.99
2018-07-04T05:25:55.137Z,99.99
2018-07-04T05:26:55.130Z,99.71
2018-07-04T05:27:55.128Z,99.62
2018-07-04T05:28:55.117Z,98.24
2018-07-04T05:29:55.122Z,98.95
2018-07-04T05:30:55.106Z,97.56
2018-07-04T05:31:55.101Z,96.89
2018-07-04T05:32:55.095Z,96.61
2018-07-04T05:33:55.094Z,97.56
2018-07-04T05:34:54.829Z,98.9
2018-07-04T05:35:55.078Z,98.52
2018-07-04T05:36:55.070Z,95.94
2018-07-04T05:37:55.069Z,95.56
2018-07-04T05:38:55.062Z,94.55
2018-07-04T05:39:55.058Z,91.01
2018-07-04T05:40:55.160Z,91.97
2018-07-04T05:41:55.044Z,93.3
2018-07-04T05:42:55.044Z,96.37
2018-07-04T05:43:54.777Z,95.79
2018-07-04T05:44:55.030Z,95.61
2018-07-04T05:45:55.031Z,96.66
2018-07-04T05:46:55.044Z,94.6
2018-07-04T05:47:54.759Z,90.48
2018-07-04T05:48:54.752Z,90.96
2018-07-04T05:49:55.008Z,92.3
2018-07-04T05:50:54.998Z,93.16
2018-07-04T05:51:54.993Z,90.09
2018-07-04T05:52:54.987Z,90.96
2018-07-04T05:53:54.985Z,88.76
2018-07-04T05:54:54.976Z,89.04
2018-07-04T05:55:54.973Z,91.25
2018-07-04T05:56:54.971Z,81.57
2018-07-04T05:57:54.706Z,80.76
2018-07-04T05:58:55.223Z,80.66
2018-07-04T05:59:55.208Z,82.57
2018-07-04T06:00:54.952Z,81.13
2018-07-04T06:01:54.952Z,82.86
2018-07-04T06:02:55.094Z,78.27
2018-07-04T06:03:54.931Z,75.48
2018-07-04T06:04:54.930Z,69.26
2018-07-04T06:05:54.927Z,68.43
2018-07-04T06:06:54.664Z,69.48
2018-07-04T06:07:54.917Z,67.85
2018-07-04T06:08:54.922Z,68.62
2018-07-04T06:09:54.651Z,70.15
2018-07-04T06:10:54.648Z,70.15
2018-07-04T06:11:54.900Z,72.45
2018-07-04T06:12:54.894Z,72.94
2018-07-04T06:13:54.897Z,70.06
2018-07-04T06:14:54.934Z,73.74
2018-07-04T06:15:54.879Z,77.95
2018-07-04T06:16:54.896Z,77.95
2018-07-04T06:17:54.876Z,77.29
2018-07-04T06:18:54.875Z,78.82
2018-07-04T06:19:54.864Z,78.44
2018-07-04T06:20:54.864Z,75.18
2018-07-04T06:21:54.855Z,74.51
2018-07-04T06:22:54.855Z,76.14
2018-07-04T06:23:54.858Z,80.45
2018-07-04T06:24:54.851Z,80.93
2018-07-04T06:25:54.845Z,78.92
2018-07-04T06:26:54.843Z,77.95
2018-07-04T06:27:54.841Z,77.86
2018-07-04T06:28:54.833Z,75.7
2018-07-04T06:29:54.827Z,71.47
2018-07-04T06:30:54.825Z,70.8
2018-07-04T06:31:54.825Z,75.02
2018-07-04T06:32:54.817Z,71.86
2018-07-04T06:33:54.558Z,69.65
2018-07-04T06:34:54.813Z,66.49
2018-07-04T06:35:54.810Z,60.57
2018-07-04T06:36:54.805Z,59.12
2018-07-04T06:37:54.545Z,51.83
2018-07-04T06:38:54.799Z,49.43
2018-07-04T06:39:54.541Z,51.76
2018-07-04T06:40:54.797Z,54.55
2018-07-04T06:41:54.789Z,53.58
2018-07-04T06:42:54.786Z,50.03
2018-07-04T06:43:54.785Z,46.12
2018-07-04T06:44:54.783Z,44.2
2018-07-04T06:45:54.778Z,41.74
2018-07-04T06:46:54.777Z,35.91
2018-07-04T06:47:54.775Z,35.48
2018-07-04T06:48:54.869Z,33.89
2018-07-04T06:49:54.770Z,30.86
2018-07-04T06:50:54.771Z,24.8
2018-07-04T06:51:54.768Z,20.08
2018-07-04T06:52:54.774Z,20.01
2018-07-04T06:53:54.767Z,22.17
2018-07-04T06:54:54.771Z,18.21
2018-07-04T06:55:54.773Z,20.47
2018-07-04T06:56:54.776Z,19.12
2018-07-04T06:57:54.777Z,17.86
2018-07-04T06:58:54.520Z,19.43
2018-07-04T06:59:54.784Z,16.8
2018-07-04T07:00:54.784Z,19.26
2018-07-04T07:01:54.855Z,21.32
2018-07-04T07:02:54.790Z,16.93
2018-07-04T07:03:54.791Z,13.9
2018-07-04T07:04:54.804Z,13.12
2018-07-04T07:05:54.544Z,14.2
2018-07-04T07:06:54.812Z,13.92
2018-07-04T07:07:54.813Z,12.45
2018-07-04T07:08:54.820Z,11.18
2018-07-04T07:09:54.825Z,10.79
2018-07-04T07:10:54.824Z,16.59
2018-07-04T07:11:54.833Z,15.12
2018-07-04T07:12:54.845Z,12.67
2018-07-04T07:13:54.846Z,11.79
2018-07-04T07:14:54.856Z,13.67
2018-07-04T07:15:54.861Z,12.88
2018-07-04T07:16:54.609Z,10.33
2018-07-04T07:17:54.876Z,13.09
2018-07-04T07:18:54.884Z,11.32
2018-07-04T07:19:54.894Z,11.33
2018-07-04T07:20:54.644Z,10.54
2018-07-04T07:21:54.915Z,10.35
2018-07-04T07:22:54.918Z,10.35
2018-07-04T07:23:54.930Z,11.33
2018-07-04T07:24:54.931Z,8.97
2018-07-04T07:25:54.942Z,8.87
2018-07-04T07:26:54.960Z,11.04
2018-07-04T07:27:54.704Z,13.01
2018-07-04T07:28:54.965Z,11.34
2018-07-04T07:29:54.980Z,8.48
2018-07-04T07:30:54.988Z,8.58
2018-07-04T07:31:55.006Z,11.64
2018-07-04T07:32:55.009Z,9.86
2018-07-04T07:33:55.162Z,11.05
2018-07-04T07:34:55.028Z,9.97
2018-07-04T07:35:54.782Z,9.08
2018-07-04T07:36:55.045Z,7.89
2018-07-04T07:37:55.059Z,8.09
2018-07-04T07:38:55.066Z,7.1
2018-07-04T07:39:55.073Z,7.2
2018-07-04T07:40:55.083Z,7.88
2018-07-04T07:41:54.848Z,8.08
2018-07-04T07:42:55.111Z,7.98
2018-07-04T07:43:55.115Z,7.98
2018-07-04T07:44:55.127Z,11.72
2018-07-04T07:45:55.141Z,9.06
2018-07-04T07:46:55.147Z,8.76
2018-07-04T07:47:55.158Z,8.87
2018-07-04T07:48:55.170Z,7.88
2018-07-04T07:49:55.178Z,10.15
2018-07-04T07:50:55.191Z,8.58
2018-07-04T07:51:55.201Z,7.49
2018-07-04T07:52:55.218Z,6.51
2018-07-04T07:53:55.222Z,7.89
2018-07-04T07:54:55.232Z,8.08
2018-07-04T07:55:54.985Z,7
2018-07-04T07:56:55.259Z,7.59
2018-07-04T07:57:55.008Z,7.68
2018-07-04T07:58:55.282Z,8.37
2018-07-04T07:59:55.030Z,7.19
2018-07-04T08:00:55.303Z,6.4
2018-07-04T08:01:55.483Z,9.46
2018-07-04T08:02:55.321Z,11.04
2018-07-04T08:03:55.329Z,8.18
2018-07-04T08:04:55.083Z,7.88
2018-07-04T08:05:55.122Z,6.99
2018-07-04T08:06:55.105Z,6.99
2018-07-04T08:07:55.373Z,8.67
2018-07-04T08:08:55.380Z,9.06
2018-07-04T08:09:55.132Z,8.67
2018-07-04T08:10:55.401Z,7.19
2018-07-04T08:11:55.417Z,7.29
2018-07-04T08:12:55.420Z,7.28
2018-07-04T08:13:55.431Z,6.01
2018-07-04T08:14:55.438Z,7.18
2018-07-04T08:15:55.456Z,8.65
2018-07-04T08:16:55.201Z,8.16
2018-07-04T08:17:55.471Z,8.56
2018-07-04T08:18:55.540Z,9.14
2018-07-04T08:19:55.489Z,9.73
2018-07-04T08:20:55.501Z,8.74
2018-07-04T08:21:55.244Z,9.23
2018-07-04T08:22:55.508Z,11.28
2018-07-04T08:23:55.518Z,10.3
2018-07-04T08:24:55.527Z,9.89
2018-07-04T08:25:55.279Z,10.38
2018-07-04T08:26:55.542Z,11.25
2018-07-04T08:27:55.293Z,10.94
2018-07-04T08:28:55.554Z,13.19
2018-07-04T08:29:55.308Z,17.38
2018-07-04T08:30:55.575Z,17.18
2018-07-04T08:31:55.659Z,15.61
2018-07-04T08:32:55.588Z,17.27
2018-07-04T08:33:55.594Z,17.35
2018-07-04T08:34:55.342Z,15.69
2018-07-04T08:35:55.606Z,13.84
2018-07-04T08:36:55.612Z,14.42
2018-07-04T08:37:55.616Z,15.28
2018-07-04T08:38:55.392Z,16.46
2018-07-04T08:39:55.626Z,15.96
2018-07-04T08:40:55.639Z,15.28
2018-07-04T08:41:55.640Z,15.47
2018-07-04T08:42:55.646Z,15.47
2018-07-04T08:43:55.653Z,17.21
2018-07-04T08:44:55.659Z,19.16
2018-07-04T08:45:55.661Z,22.08
2018-07-04T08:46:55.414Z,19.06
2018-07-04T08:47:55.672Z,16.62
2018-07-04T08:48:55.680Z,17.01
2018-07-04T08:49:55.685Z,18.86
2018-07-04T08:50:55.690Z,19.15
2018-07-04T08:51:55.439Z,19.06
2018-07-04T08:52:55.909Z,20.12
2018-07-04T08:53:55.449Z,17.69
2018-07-04T08:54:55.712Z,18.46
2018-07-04T08:55:55.717Z,17.68
2018-07-04T08:56:55.721Z,22.83
2018-07-04T08:57:55.470Z,19.24
2018-07-04T08:58:55.731Z,17.78
2018-07-04T08:59:55.735Z,17.4
2018-07-04T09:00:55.742Z,17
2018-07-04T09:01:55.489Z,17.2
2018-07-04T09:02:55.754Z,17.4
2018-07-04T09:03:55.757Z,19.14
2018-07-04T09:04:55.760Z,18.56
2018-07-04T09:05:55.763Z,18.56
2018-07-04T09:06:55.767Z,17.3
2018-07-04T09:07:55.772Z,17.68
2018-07-04T09:08:55.520Z,17.78
2018-07-04T09:09:55.525Z,18.07
2018-07-04T09:10:55.787Z,17.2
2018-07-04T09:11:56.011Z,17.2
2018-07-04T09:12:55.796Z,15.25
2018-07-04T09:13:55.799Z,14.48
2018-07-04T09:14:55.803Z,14.18
2018-07-04T09:15:55.813Z,15.06
2018-07-04T09:16:55.835Z,16.61
2018-07-04T09:17:55.814Z,16.13
2018-07-04T09:18:55.831Z,15.16
2018-07-04T09:19:55.821Z,15.06
2018-07-04T09:20:55.827Z,14.28
2018-07-04T09:21:55.831Z,16.32
2018-07-04T09:22:55.835Z,15.64
2018-07-04T09:23:55.841Z,14.48
2018-07-04T09:24:55.590Z,14.67
2018-07-04T09:25:55.859Z,15.05
2018-07-04T09:26:55.853Z,15.54
2018-07-04T09:27:55.858Z,17.38
2018-07-04T09:28:55.858Z,19.71
2018-07-04T09:29:55.867Z,21.18
2018-07-04T09:30:55.872Z,18.46
2018-07-04T09:31:55.874Z,17.2
2018-07-04T09:32:55.884Z,21.28
2018-07-04T09:33:55.623Z,21.77
2018-07-04T09:34:55.889Z,19.93
2018-07-04T09:35:55.887Z,19.73
2018-07-04T09:36:55.894Z,19.35
2018-07-04T09:37:55.896Z,20.9
2018-07-04T09:38:55.898Z,20.04
2018-07-04T09:39:55.648Z,20.32
2018-07-04T09:40:55.907Z,19.35
2018-07-04T09:41:55.653Z,17.9
2018-07-04T09:42:55.658Z,17.71
2018-07-04T09:43:56.141Z,16.44
2018-07-04T09:44:55.923Z,15.96
2018-07-04T09:45:55.671Z,17.41
2018-07-04T09:46:55.930Z,18
2018-07-04T09:47:55.680Z,16.83
2018-07-04T09:48:55.939Z,16.73
2018-07-04T09:49:55.945Z,15.56
2018-07-04T09:50:55.955Z,16.14
2018-07-04T09:51:55.963Z,16.05
2018-07-04T09:52:55.957Z,17.99
2018-07-04T09:53:55.957Z,17.5
2018-07-04T09:54:55.965Z,17.8
2018-07-04T09:55:55.966Z,18.09
2018-07-04T09:56:55.716Z,17.99
2018-07-04T09:57:55.979Z,17.8
2018-07-04T09:58:56.144Z,16.54
2018-07-04T09:59:55.985Z,16.64
2018-07-04T10:00:55.992Z,15.96
2018-07-04T10:01:55.992Z,17.9
2018-07-04T10:02:55.994Z,15.08
2018-07-04T10:03:55.999Z,15.57
2018-07-04T10:04:55.747Z,17.32
2018-07-04T10:05:56.010Z,18.59
2018-07-04T10:06:56.014Z,17.22
2018-07-04T10:07:56.019Z,16.64
2018-07-04T10:08:56.059Z,16.44
2018-07-04T10:09:56.037Z,16.83
2018-07-04T10:10:55.773Z,16.44
2018-07-04T10:11:56.035Z,16.74
2018-07-04T10:12:56.038Z,15.86
2018-07-04T10:13:56.043Z,15.08
2018-07-04T10:14:56.051Z,14.69
2018-07-04T10:15:56.053Z,15.18
2018-07-04T10:16:56.053Z,17.99
2018-07-04T10:17:56.057Z,17.41
2018-07-04T10:18:56.067Z,16.83
2018-07-04T10:19:55.810Z,17.22
2018-07-04T10:20:55.812Z,17.9
2018-07-04T10:21:56.077Z,18.49
2018-07-04T10:22:56.089Z,17.22
2018-07-04T10:23:56.085Z,16.54
2018-07-04T10:24:56.091Z,16.44
2018-07-04T10:25:56.098Z,14.59
2018-07-04T10:26:56.095Z,14.98
2018-07-04T10:27:56.105Z,15.96
2018-07-04T10:28:56.111Z,14.69
2018-07-04T10:29:56.112Z,16.63
2018-07-04T10:30:56.117Z,17.12
2018-07-04T10:31:56.121Z,16.53
2018-07-04T10:32:56.121Z,14.78
2018-07-04T10:33:56.125Z,16.24
2018-07-04T10:34:56.132Z,17.8
2018-07-04T10:35:55.886Z,16.93
2018-07-04T10:36:56.140Z,17.02
2018-07-04T10:37:56.175Z,19.84
2018-07-04T10:38:56.148Z,18.39
2018-07-04T10:39:56.152Z,17.52
2018-07-04T10:40:55.900Z,16.44
2018-07-04T10:41:56.162Z,17.52
2018-07-04T10:42:56.165Z,16.44
2018-07-04T10:43:55.911Z,17.22
2018-07-04T10:44:56.279Z,16.15
2018-07-04T10:45:56.177Z,18.68
2018-07-04T10:46:56.179Z,18.78
2018-07-04T10:47:56.183Z,18.29
2018-07-04T10:48:56.192Z,17.52
2018-07-04T10:49:56.192Z,18.29
2018-07-04T10:50:56.273Z,23.25
2018-07-04T10:51:56.203Z,19.65
2018-07-04T10:52:56.227Z,16.93
2018-07-04T10:53:56.211Z,14.79
2018-07-04T10:54:56.216Z,15.47
2018-07-04T10:55:56.217Z,13.82
2018-07-04T10:56:56.227Z,13.62
2018-07-04T10:57:56.232Z,15.17
2018-07-04T10:58:56.229Z,16.44
2018-07-04T10:59:56.236Z,16.63
2018-07-04T11:00:56.237Z,17.7
2018-07-04T11:01:56.241Z,17.5
2018-07-04T11:02:56.251Z,15.95
2018-07-04T11:03:56.251Z,17.6
2018-07-04T11:04:56.255Z,18.19
2018-07-04T11:05:56.271Z,17.5
2018-07-04T11:06:56.266Z,17.21
2018-07-04T11:07:56.383Z,19.46
2018-07-04T11:08:56.272Z,18
2018-07-04T11:09:56.279Z,16.83
2018-07-04T11:10:56.283Z,15.28
2018-07-04T11:11:56.291Z,14.79
2018-07-04T11:12:56.031Z,18.88
2018-07-04T11:13:56.036Z,18.59
2018-07-04T11:14:56.296Z,18.29
2018-07-04T11:15:56.303Z,17.13
2018-07-04T11:16:56.452Z,18
2018-07-04T11:17:56.315Z,18.1
2018-07-04T11:18:56.315Z,17.71
2018-07-04T11:19:56.318Z,16.25
2018-07-04T11:20:56.326Z,14.79
2018-07-04T11:21:56.325Z,13.82
2018-07-04T11:22:56.331Z,13.82
2018-07-04T11:23:56.080Z,18.68
2018-07-04T11:24:56.338Z,17.71
2018-07-04T11:25:56.345Z,14.69
2018-07-04T11:26:56.352Z,15.28
2018-07-04T11:27:56.356Z,14.98
2018-07-04T11:28:56.100Z,14.69
2018-07-04T11:29:56.364Z,15.27
2018-07-04T11:30:56.113Z,16.14
2018-07-04T11:31:56.371Z,19.55
2018-07-04T11:32:56.372Z,18.58
2018-07-04T11:33:56.377Z,17.12
2018-07-04T11:34:56.380Z,16.73
2018-07-04T11:35:56.384Z,17.5
2018-07-04T11:36:56.393Z,17.3
2018-07-04T11:37:56.394Z,17.3
2018-07-04T11:38:56.403Z,17.21
2018-07-04T11:39:56.403Z,18.66
2018-07-04T11:40:56.411Z,17.5
2018-07-04T11:41:56.412Z,16.33
2018-07-04T11:42:56.158Z,16.82
2018-07-04T11:43:56.419Z,18.66
2018-07-04T11:44:56.420Z,19.25
2018-07-04T11:45:56.432Z,17.49
2018-07-04T11:46:56.177Z,16.72
2018-07-04T11:47:56.179Z,16.81
2018-07-04T11:48:56.439Z,15.16
2018-07-04T11:49:56.446Z,16.42
2018-07-04T11:50:56.447Z,20.22
2018-07-04T11:51:56.197Z,16.62
2018-07-04T11:52:56.457Z,15.07
2018-07-04T11:53:56.463Z,15.36
2018-07-04T11:54:56.471Z,17.98
2018-07-04T11:55:56.479Z,19.25
2018-07-04T11:56:56.585Z,17.89
2018-07-04T11:57:56.486Z,19.15
2018-07-04T11:58:56.485Z,17.69
2018-07-04T11:59:56.233Z,17.11
2018-07-04T12:00:56.488Z,18.38
2018-07-04T12:01:56.496Z,17.99
2018-07-04T12:02:56.496Z,18.68
2018-07-04T12:03:56.512Z,16.15
2018-07-04T12:04:56.509Z,17.32
2018-07-04T12:05:56.514Z,18.1
2018-07-04T12:06:56.518Z,19.55
2018-07-04T12:07:56.264Z,20.63
2018-07-04T12:08:56.526Z,19.94
2018-07-04T12:09:56.536Z,17.6
2018-07-04T12:10:56.684Z,17.13
2018-07-04T12:11:56.541Z,16.05
2018-07-04T12:12:56.542Z,15.67
2018-07-04T12:13:56.551Z,16.14
2018-07-04T12:14:56.554Z,16.93
2018-07-04T12:15:56.557Z,17.21
2018-07-04T12:16:56.563Z,19.37
2018-07-04T12:17:56.565Z,17.9
2018-07-04T12:18:56.574Z,15.85
2018-07-04T12:19:56.583Z,16.24
2018-07-04T12:20:56.697Z,17.5
2018-07-04T12:21:56.587Z,19.64
2018-07-04T12:22:56.594Z,18.08
2018-07-04T12:23:56.339Z,18.29
2018-07-04T12:24:56.598Z,19.26
2018-07-04T12:25:56.604Z,19.16
2018-07-04T12:26:56.717Z,18.68
2018-07-04T12:27:56.614Z,19.16
2018-07-04T12:28:56.619Z,17.6
2018-07-04T12:29:56.625Z,17.02
2018-07-04T12:30:56.637Z,17.98
2018-07-04T12:31:56.701Z,17.99
2018-07-04T12:32:56.634Z,19.35
2018-07-04T12:33:56.383Z,17.5
2018-07-04T12:34:56.645Z,16.83
2018-07-04T12:35:56.651Z,17.8
2018-07-04T12:36:56.403Z,18.58
2018-07-04T12:37:56.665Z,17.99
2018-07-04T12:38:56.665Z,18.19
2018-07-04T12:39:56.670Z,18.68
2018-07-04T12:40:56.672Z,19.65
2018-07-04T12:41:56.684Z,20.62
2018-07-04T12:42:56.685Z,17.7
2018-07-04T12:43:56.688Z,18.09
2018-07-04T12:44:56.691Z,19.74
2018-07-04T12:45:56.701Z,17.21
2018-07-04T12:46:56.489Z,17.7
2018-07-04T12:47:56.714Z,17.6
2018-07-04T12:48:56.712Z,17.7
2018-07-04T12:49:56.722Z,17.21
2018-07-04T12:50:56.747Z,15.47
2018-07-04T12:51:56.726Z,15.66
2018-07-04T12:52:56.731Z,19.74
2018-07-04T12:53:56.536Z,21.69
2018-07-04T12:54:56.486Z,19.94
2018-07-04T12:55:56.748Z,19.17
2018-07-04T12:56:56.754Z,19.95